Time;durP1;ratioP1;P1;durP2;ratioP2;P2;SDS_P1;SDS_P2;PMS_P1;PMS_P2;Temp;Humidity;BMP_temperature;BMP_pressure;BME280_temperature;BME280_humidity;BME280_pressure;Samples;Min_cycle;Max_cycle;Signal;HPM_P1;HPM_P2
2023/02/05 00:00:19;;;;;;;15.85;7.05;;;;;4.10;100496.00;;;;4937164;29;20055;-61
2023/02/05 00:02:46;;;;;;;18.05;7.63;;;;;4.10;100494.00;;;;4936787;29;20055;-63
2023/02/05 00:05:13;;;;;;;20.60;7.57;;;;;4.00;100494.00;;;;4936552;29;20062;-63
2023/02/05 00:07:39;;;;;;;11.85;6.68;;;;;4.00;100493.00;;;;4936976;29;20048;-63
2023/02/05 00:10:06;;;;;;;15.70;6.38;;;;;4.00;100489.00;;;;4936856;29;20048;-61
2023/02/05 00:12:32;;;;;;;14.48;7.38;;;;;4.00;100497.00;;;;4936678;29;20048;-61
2023/02/05 00:14:59;;;;;;;13.85;7.13;;;;;3.90;100496.00;;;;4936020;29;20055;-63
2023/02/05 00:17:26;;;;;;;19.60;7.20;;;;;4.00;100491.00;;;;4936682;29;20044;-63
2023/02/05 00:19:52;;;;;;;14.10;7.40;;;;;4.10;100487.00;;;;4936605;29;20098;-63
2023/02/05 00:22:18;;;;;;;15.55;8.02;;;;;4.10;100479.00;;;;4936537;29;20483;-63
2023/02/05 00:24:45;;;;;;;15.43;7.20;;;;;4.20;100478.00;;;;4935792;29;20043;-64
2023/02/05 00:27:12;;;;;;;13.50;7.03;;;;;4.40;100478.00;;;;4919340;29;20056;-62
2023/02/05 00:29:38;;;;;;;19.08;7.72;;;;;4.40;100480.00;;;;4936196;29;20051;-63
2023/02/05 00:32:05;;;;;;;13.32;7.50;;;;;4.60;100484.00;;;;4936249;29;20044;-62
2023/02/05 00:34:31;;;;;;;12.70;7.18;;;;;4.60;100474.00;;;;4935693;29;20052;-63
2023/02/05 00:36:58;;;;;;;16.70;7.25;;;;;4.50;100485.00;;;;4918942;29;20043;-63
2023/02/05 00:39:24;;;;;;;14.73;6.25;;;;;4.60;100478.00;;;;4919022;29;20138;-62
2023/02/05 00:41:51;;;;;;;17.98;7.07;;;;;4.50;100480.00;;;;4918971;29;20054;-61
2023/02/05 00:44:18;;;;;;;18.77;7.50;;;;;4.50;100483.00;;;;4918013;29;20051;-61
2023/02/05 00:46:44;;;;;;;16.65;7.38;;;;;4.40;100485.00;;;;4936019;29;20056;-62
2023/02/05 00:49:11;;;;;;;16.25;8.07;;;;;4.30;100490.00;;;;4918860;29;20059;-61
2023/02/05 00:51:37;;;;;;;15.68;7.10;;;;;4.20;100487.00;;;;4919016;29;20043;-60
2023/02/05 00:54:04;;;;;;;15.85;7.88;;;;;4.20;100482.00;;;;4935534;29;20520;-63
2023/02/05 00:56:31;;;;;;;15.93;7.20;;;;;4.30;100482.00;;;;4935671;29;20047;-63
2023/02/05 00:58:58;;;;;;;16.65;8.07;;;;;4.30;100479.00;;;;4935807;29;20036;-61
2023/02/05 01:01:25;;;;;;;13.77;7.88;;;;;4.40;100471.00;;;;4918765;29;20060;-62
2023/02/05 01:03:52;;;;;;;21.38;8.35;;;;;4.40;100457.00;;;;4918600;29;20056;-61
2023/02/05 01:06:19;;;;;;;14.98;7.70;;;;;4.40;100456.00;;;;4935279;29;20095;-62
2023/02/05 01:08:46;;;;;;;19.00;7.78;;;;;4.40;100455.00;;;;4935714;29;20512;-61
2023/02/05 01:11:14;;;;;;;14.45;7.18;;;;;4.60;100460.00;;;;4918447;29;20048;-61
2023/02/05 01:13:41;;;;;;;14.80;7.28;;;;;4.60;100453.00;;;;4935808;29;20052;-61
2023/02/05 01:16:09;;;;;;;17.77;7.53;;;;;4.70;100457.00;;;;4918701;29;20051;-62
2023/02/05 01:18:36;;;;;;;20.33;7.45;;;;;4.80;100449.00;;;;4936321;29;20494;-62
2023/02/05 01:21:02;;;;;;;18.23;8.18;;;;;4.70;100457.00;;;;4935934;29;20064;-61
2023/02/05 01:23:29;;;;;;;12.20;7.47;;;;;4.70;100449.00;;;;4918715;29;20151;-61
2023/02/05 01:25:55;;;;;;;15.80;8.32;;;;;4.70;100439.00;;;;4935590;29;20047;-62
2023/02/05 01:28:22;;;;;;;17.75;7.60;;;;;4.90;100445.00;;;;4918785;29;20047;-62
2023/02/05 01:30:50;;;;;;;12.48;6.80;;;;;4.90;100444.00;;;;4918823;29;20075;-62
2023/02/05 01:33:17;;;;;;;13.38;6.43;;;;;4.80;100434.00;;;;4935928;29;20051;-62
2023/02/05 01:35:44;;;;;;;16.27;7.60;;;;;4.90;100429.00;;;;4918230;29;20106;-63
2023/02/05 01:38:11;;;;;;;18.10;6.90;;;;;4.90;100424.00;;;;4935781;29;20040;-61
2023/02/05 01:40:38;;;;;;;14.20;6.57;;;;;4.80;100423.00;;;;4918494;29;20063;-63
2023/02/05 01:43:16;;;;;;;17.38;7.07;;;;;4.70;100432.00;;;;4935138;29;20059;-62
2023/02/05 01:45:56;;;;;;;19.20;6.93;;;;;4.70;100430.00;;;;4934806;29;20055;-62
2023/02/05 01:48:28;;;;;;;15.35;6.03;;;;;4.70;100427.00;;;;4935296;29;20076;-62
2023/02/05 01:51:00;;;;;;;16.10;7.13;;;;;4.70;100421.00;;;;4935133;29;20054;-62
2023/02/05 01:53:30;;;;;;;17.27;7.88;;;;;4.60;100425.00;;;;4935154;29;20102;-62
2023/02/05 01:56:01;;;;;;;15.57;7.63;;;;;4.60;100415.00;;;;4933898;29;20409;-62
2023/02/05 01:58:32;;;;;;;19.10;8.13;;;;;4.60;100407.00;;;;4935016;29;20055;-62
2023/02/05 02:00:58;;;;;;;14.68;7.22;;;;;4.60;100410.00;;;;4934908;29;20036;-63
2023/02/05 02:03:29;;;;;;;16.25;7.28;;;;;4.60;100405.00;;;;4942341;29;20062;-63
2023/02/05 02:05:57;;;;;;;19.27;7.55;;;;;4.60;100405.00;;;;4927346;29;20087;-62
2023/02/05 02:08:24;;;;;;;15.15;6.30;;;;;4.50;100402.00;;;;4937677;29;20040;-62
2023/02/05 02:10:52;;;;;;;15.63;6.30;;;;;4.50;100398.00;;;;4934932;29;20051;-63
2023/02/05 02:13:20;;;;;;;13.73;5.68;;;;;4.40;100391.00;;;;4917572;29;20051;-63
2023/02/05 02:15:48;;;;;;;20.88;6.40;;;;;4.30;100380.00;;;;4916920;29;20058;-63
2023/02/05 02:18:26;;;;;;;16.63;6.38;;;;;4.30;100384.00;;;;4917508;29;20043;-62
2023/02/05 02:21:18;;;;;;;13.48;6.20;;;;;4.40;100395.00;;;;4901736;29;20071;-62
2023/02/05 02:24:05;;;;;;;15.95;6.25;;;;;4.50;100390.00;;;;4917528;29;20066;-62
2023/02/05 02:26:39;;;;;;;13.35;6.88;;;;;4.40;100372.00;;;;4911047;29;20733;-62
2023/02/05 02:29:11;;;;;;;15.07;6.03;;;;;4.30;100384.00;;;;4934411;29;20374;-62
2023/02/05 02:31:49;;;;;;;14.68;6.50;;;;;4.30;100389.00;;;;4934457;29;20569;-62
2023/02/05 02:34:22;;;;;;;13.73;6.55;;;;;4.30;100397.00;;;;4916556;29;20090;-62
2023/02/05 02:36:55;;;;;;;13.13;6.13;;;;;4.30;100386.00;;;;4917693;29;20046;-63
2023/02/05 02:39:28;;;;;;;15.45;6.28;;;;;4.40;100377.00;;;;4917483;29;20102;-62
2023/02/05 02:42:05;;;;;;;13.32;6.22;;;;;4.50;100364.00;;;;4917316;29;20048;-63
2023/02/05 02:44:58;;;;;;;17.05;6.43;;;;;4.60;100365.00;;;;4916783;29;20406;-63
2023/02/05 02:47:30;;;;;;;15.50;5.68;;;;;4.70;100361.00;;;;4917238;29;20087;-62
2023/02/05 02:50:03;;;;;;;15.98;6.38;;;;;4.80;100363.00;;;;4917311;29;20420;-62
2023/02/05 02:52:34;;;;;;;18.45;7.28;;;;;5.00;100365.00;;;;4917448;29;20051;-62
2023/02/05 02:55:06;;;;;;;12.48;6.65;;;;;5.10;100369.00;;;;4933963;29;20057;-63
2023/02/05 02:57:38;;;;;;;15.35;6.45;;;;;5.30;100369.00;;;;4917401;29;20051;-62
2023/02/05 03:00:09;;;;;;;14.05;6.95;;;;;5.30;100368.00;;;;4917525;29;20047;-62
2023/02/05 03:02:37;;;;;;;17.02;6.38;;;;;5.30;100376.00;;;;4934268;29;20051;-62
2023/02/05 03:05:08;;;;;;;16.20;7.13;;;;;5.30;100373.00;;;;4916707;29;20114;-62
2023/02/05 03:07:41;;;;;;;19.30;6.72;;;;;5.30;100361.00;;;;4919901;29;20043;-62
2023/02/05 03:10:22;;;;;;;15.95;6.35;;;;;5.40;100355.00;;;;4920931;29;20515;-62
2023/02/05 03:12:48;;;;;;;15.85;6.82;;;;;5.40;100345.00;;;;4937919;29;20047;-62
2023/02/05 03:15:15;;;;;;;14.82;6.85;;;;;5.40;100339.00;;;;4937088;29;20118;-62
2023/02/05 03:17:42;;;;;;;15.32;6.65;;;;;5.40;100345.00;;;;4937776;29;20495;-61
2023/02/05 03:20:19;;;;;;;10.75;6.28;;;;;5.20;100336.00;;;;4937583;29;20039;-62
2023/02/05 03:22:46;;;;;;;13.93;6.85;;;;;5.20;100335.00;;;;4920490;29;20047;-61
2023/02/05 03:25:15;;;;;;;14.77;6.95;;;;;5.20;100342.00;;;;4936926;29;20048;-60
2023/02/05 03:27:41;;;;;;;19.65;7.80;;;;;5.20;100342.00;;;;4920273;29;20054;-61
2023/02/05 03:30:09;;;;;;;14.23;7.90;;;;;5.20;100335.00;;;;4920280;29;20142;-61
2023/02/05 03:32:51;;;;;;;17.13;7.65;;;;;5.30;100348.00;;;;4920026;29;20043;-62
2023/02/05 03:35:27;;;;;;;14.25;7.80;;;;;5.30;100345.00;;;;4936786;29;20126;-62
2023/02/05 03:38:20;;;;;;;20.65;7.72;;;;;5.30;100349.00;;;;4937637;29;20047;-62
2023/02/05 03:40:53;;;;;;;13.55;7.00;;;;;5.30;100344.00;;;;4920010;29;20067;-62
2023/02/05 03:43:57;;;;;;;21.23;8.15;;;;;5.30;100350.00;;;;4937059;29;20111;-62
2023/02/05 03:46:41;;;;;;;17.85;7.38;;;;;5.30;100336.00;;;;4919716;29;20058;-62
2023/02/05 03:49:19;;;;;;;15.25;7.45;;;;;5.40;100340.00;;;;4920237;29;20044;-62
2023/02/05 03:51:55;;;;;;;17.17;7.28;;;;;5.40;100338.00;;;;4920112;29;20048;-62
2023/02/05 03:54:29;;;;;;;15.02;7.80;;;;;5.40;100334.00;;;;4919384;29;20055;-62
2023/02/05 03:57:01;;;;;;;11.57;6.68;;;;;5.40;100335.00;;;;4919758;29;20055;-63
2023/02/05 03:59:32;;;;;;;17.02;7.25;;;;;5.40;100335.00;;;;4919916;29;20047;-63
2023/02/05 04:02:03;;;;;;;16.63;7.35;;;;;5.40;100333.00;;;;4919817;29;20055;-62
2023/02/05 04:04:34;;;;;;;17.95;7.97;;;;;5.40;100338.00;;;;4919573;29;20075;-63
2023/02/05 04:07:01;;;;;;;17.50;8.23;;;;;5.50;100339.00;;;;4920198;29;20055;-62
2023/02/05 04:09:28;;;;;;;15.40;7.18;;;;;5.60;100346.00;;;;4920134;29;20048;-63
2023/02/05 04:11:55;;;;;;;18.08;7.75;;;;;5.60;100350.00;;;;4937163;29;20564;-62
2023/02/05 04:14:22;;;;;;;17.70;7.13;;;;;5.60;100358.00;;;;4919414;29;20051;-63
2023/02/05 04:16:50;;;;;;;17.83;8.30;;;;;5.60;100363.00;;;;4919879;29;20052;-62
2023/02/05 04:19:19;;;;;;;14.82;7.50;;;;;5.60;100370.00;;;;4919605;29;20409;-62
2023/02/05 04:21:46;;;;;;;14.15;7.43;;;;;5.60;100375.00;;;;4937197;29;20039;-62
2023/02/05 04:24:12;;;;;;;14.80;7.43;;;;;5.50;100371.00;;;;4919230;29;20055;-62
2023/02/05 04:26:39;;;;;;;13.85;6.90;;;;;5.50;100368.00;;;;4919774;29;20054;-62
2023/02/05 04:29:06;;;;;;;18.15;8.05;;;;;5.50;100366.00;;;;4919751;29;20524;-62
2023/02/05 04:31:40;;;;;;;18.35;7.57;;;;;5.50;100361.00;;;;4919917;29;20169;-61
2023/02/05 04:34:06;;;;;;;17.75;7.25;;;;;5.50;100361.00;;;;4919188;29;20051;-61
2023/02/05 04:36:33;;;;;;;18.08;7.57;;;;;5.40;100359.00;;;;4919936;29;20051;-62
2023/02/05 04:39:00;;;;;;;16.52;7.38;;;;;5.40;100353.00;;;;4919676;29;20051;-63
2023/02/05 04:41:28;;;;;;;14.65;7.63;;;;;5.50;100346.00;;;;4919610;29;20051;-61
2023/02/05 04:43:54;;;;;;;17.20;8.32;;;;;5.50;100346.00;;;;4936482;29;20082;-61
2023/02/05 04:46:21;;;;;;;15.13;8.95;;;;;5.60;100347.00;;;;4919735;29;20039;-62
2023/02/05 04:48:47;;;;;;;18.77;8.30;;;;;5.70;100345.00;;;;4936602;29;20123;-62
2023/02/05 04:51:14;;;;;;;19.10;9.43;;;;;5.70;100335.00;;;;4936573;29;20098;-62
2023/02/05 04:53:41;;;;;;;21.63;9.73;;;;;5.70;100338.00;;;;4936647;29;20047;-61
2023/02/05 04:56:15;;;;;;;18.92;8.77;;;;;5.70;100326.00;;;;4935789;29;20051;-62
2023/02/05 04:58:42;;;;;;;23.20;9.80;;;;;5.70;100321.00;;;;4936656;29;20095;-61
2023/02/05 05:01:20;;;;;;;15.50;8.60;;;;;5.60;100313.00;;;;4936753;29;20035;-61
2023/02/05 05:03:48;;;;;;;15.98;8.73;;;;;5.60;100326.00;;;;4936347;29;20500;-61
2023/02/05 05:06:17;;;;;;;18.42;8.30;;;;;5.60;100333.00;;;;4936013;29;20052;-63
2023/02/05 05:08:43;;;;;;;19.00;9.35;;;;;5.40;100335.00;;;;4919413;29;20497;-63
2023/02/05 05:11:12;;;;;;;19.52;8.73;;;;;5.30;100333.00;;;;4936207;29;20063;-63
2023/02/05 05:13:39;;;;;;;17.88;8.95;;;;;5.30;100322.00;;;;4935969;29;20054;-63
2023/02/05 05:16:07;;;;;;;17.52;9.02;;;;;5.30;100333.00;;;;4935462;29;20044;-63
2023/02/05 05:18:34;;;;;;;20.50;8.95;;;;;5.40;100342.00;;;;4935925;29;20114;-64
2023/02/05 05:21:01;;;;;;;18.75;8.75;;;;;5.40;100349.00;;;;4935867;29;20543;-63
2023/02/05 05:23:29;;;;;;;16.20;8.50;;;;;5.40;100344.00;;;;4935766;29;20051;-63
2023/02/05 05:25:55;;;;;;;24.27;10.13;;;;;5.40;100348.00;;;;4935229;29;20493;-63
2023/02/05 05:28:22;;;;;;;20.45;9.82;;;;;5.30;100341.00;;;;4935779;29;20048;-63
2023/02/05 05:30:48;;;;;;;20.52;9.13;;;;;5.30;100340.00;;;;4934714;29;20501;-63
2023/02/05 05:33:15;;;;;;;16.25;8.98;;;;;5.40;100338.00;;;;4935620;29;20044;-63
2023/02/05 05:35:42;;;;;;;20.65;8.95;;;;;5.50;100339.00;;;;4935050;29;20043;-63
2023/02/05 05:38:08;;;;;;;17.23;9.80;;;;;5.60;100339.00;;;;4918317;29;20551;-63
2023/02/05 05:46:06;;;;;;;21.15;9.82;;;;;5.60;100332.00;;;;4935120;29;20103;-63
2023/02/05 05:48:33;;;;;;;19.13;9.70;;;;;5.60;100337.00;;;;4935366;29;20118;-62
2023/02/05 05:51:00;;;;;;;18.88;9.65;;;;;5.60;100343.00;;;;4935309;29;20525;-63
2023/02/05 05:53:27;;;;;;;18.15;9.80;;;;;5.60;100340.00;;;;4938236;29;20103;-63
2023/02/05 05:55:53;;;;;;;23.75;10.02;;;;;5.50;100341.00;;;;4930499;29;20051;-63
2023/02/05 05:58:20;;;;;;;19.50;10.38;;;;;5.60;100338.00;;;;4944793;29;20051;-62
2023/02/05 06:00:46;;;;;;;15.82;9.38;;;;;5.70;100341.00;;;;4935476;29;20141;-62
2023/02/05 06:03:13;;;;;;;18.58;10.38;;;;;5.60;100342.00;;;;4935253;29;20054;-62
2023/02/05 06:05:39;;;;;;;15.60;9.50;;;;;5.60;100342.00;;;;4917575;29;20501;-63
2023/02/05 06:08:06;;;;;;;28.90;10.43;;;;;5.70;100353.00;;;;4935409;29;20489;-63
2023/02/05 06:10:33;;;;;;;19.50;10.10;;;;;5.70;100353.00;;;;4935181;29;20405;-63
2023/02/05 06:13:00;;;;;;;19.42;9.95;;;;;5.70;100358.00;;;;4918911;29;20052;-61
2023/02/05 06:15:27;;;;;;;19.35;11.35;;;;;5.60;100360.00;;;;4934813;29;20039;-61
2023/02/05 06:17:53;;;;;;;23.75;11.45;;;;;5.60;100363.00;;;;4935241;29;20055;-61
2023/02/05 06:20:20;;;;;;;22.65;11.30;;;;;5.60;100356.00;;;;4935057;29;20454;-61
2023/02/05 06:22:46;;;;;;;22.58;11.07;;;;;5.60;100357.00;;;;4918069;29;20106;-61
2023/02/05 06:25:14;;;;;;;25.55;11.70;;;;;5.60;100364.00;;;;4934782;29;20051;-62
2023/02/05 06:27:41;;;;;;;20.90;11.43;;;;;5.60;100363.00;;;;4935100;29;20386;-63
2023/02/05 06:30:08;;;;;;;20.40;11.30;;;;;5.60;100353.00;;;;4935285;29;20039;-62
2023/02/05 06:32:34;;;;;;;24.33;10.45;;;;;5.60;100350.00;;;;4935540;29;20063;-62
2023/02/05 06:35:01;;;;;;;24.38;11.30;;;;;5.70;100343.00;;;;4935025;29;20386;-62
2023/02/05 06:37:28;;;;;;;23.40;11.35;;;;;5.70;100342.00;;;;4935484;29;20051;-62
2023/02/05 06:40:14;;;;;;;22.77;11.88;;;;;5.70;100336.00;;;;4917968;29;20051;-62
2023/02/05 06:42:40;;;;;;;18.30;11.27;;;;;5.70;100331.00;;;;4938442;29;20059;-62
2023/02/05 06:45:08;;;;;;;21.45;11.32;;;;;5.80;100318.00;;;;4939330;29;20047;-62
2023/02/05 06:47:36;;;;;;;20.50;11.50;;;;;5.80;100314.00;;;;4939857;29;20054;-63
2023/02/05 06:50:04;;;;;;;21.10;10.68;;;;;5.80;100319.00;;;;4939389;29;20047;-63
2023/02/05 06:52:31;;;;;;;23.90;11.77;;;;;5.70;100320.00;;;;4940090;29;20044;-63
2023/02/05 06:54:58;;;;;;;22.23;12.02;;;;;5.70;100305.00;;;;4939400;29;20051;-63
2023/02/05 06:57:25;;;;;;;22.45;13.18;;;;;5.80;100304.00;;;;4939906;29;20054;-62
2023/02/05 06:59:51;;;;;;;22.35;12.07;;;;;5.80;100306.00;;;;4923060;29;20055;-63
2023/02/05 07:02:17;;;;;;;29.45;11.18;;;;;5.70;100317.00;;;;4921873;29;20040;-62
2023/02/05 07:04:45;;;;;;;24.95;11.45;;;;;5.80;100316.00;;;;4938281;29;20052;-62
2023/02/05 07:07:12;;;;;;;22.15;12.07;;;;;5.80;100324.00;;;;4939350;29;20090;-62
2023/02/05 07:09:39;;;;;;;28.30;11.73;;;;;5.80;100316.00;;;;4938572;29;20047;-63
2023/02/05 07:12:05;;;;;;;29.90;11.57;;;;;5.80;100330.00;;;;4938614;29;20110;-63
2023/02/05 07:14:39;;;;;;;23.13;11.73;;;;;5.70;100320.00;;;;4938535;29;20043;-62
2023/02/05 07:17:06;;;;;;;26.23;12.18;;;;;5.70;100332.00;;;;4938626;29;20043;-62
2023/02/05 07:19:34;;;;;;;26.88;11.82;;;;;5.70;100322.00;;;;4938579;29;20059;-62
2023/02/05 07:22:00;;;;;;;24.88;12.43;;;;;5.80;100321.00;;;;4938295;29;20048;-63
2023/02/05 07:24:27;;;;;;;26.30;12.68;;;;;5.90;100338.00;;;;4937751;29;20427;-63
2023/02/05 07:26:53;;;;;;;20.88;12.38;;;;;6.00;100341.00;;;;4938415;29;20056;-63
2023/02/05 07:29:20;;;;;;;22.35;12.48;;;;;6.00;100348.00;;;;4921277;29;20046;-63
2023/02/05 07:31:51;;;;;;;20.58;11.82;;;;;5.90;100339.00;;;;4938261;29;20055;-63
2023/02/05 07:34:17;;;;;;;25.40;12.32;;;;;5.80;100338.00;;;;4920386;29;20052;-63
2023/02/05 07:36:44;;;;;;;22.73;12.15;;;;;5.80;100333.00;;;;4938031;29;20477;-63
2023/02/05 07:39:10;;;;;;;24.42;12.50;;;;;5.90;100334.00;;;;4938159;29;20036;-63
2023/02/05 07:41:37;;;;;;;24.35;11.82;;;;;5.90;100334.00;;;;4921165;29;20058;-63
2023/02/05 07:44:04;;;;;;;24.15;11.27;;;;;6.00;100336.00;;;;4920451;29;20044;-64
2023/02/05 07:46:30;;;;;;;26.65;11.43;;;;;6.00;100330.00;;;;4937986;29;20048;-63
2023/02/05 07:48:57;;;;;;;19.10;12.55;;;;;6.10;100333.00;;;;4937653;29;20493;-63
2023/02/05 07:51:24;;;;;;;24.10;12.25;;;;;6.10;100318.00;;;;4920477;29;20517;-63
2023/02/05 07:53:52;;;;;;;25.42;12.98;;;;;6.10;100325.00;;;;4919927;29;20056;-62
2023/02/05 07:56:22;;;;;;;27.73;14.07;;;;;6.20;100325.00;;;;4920506;29;20043;-63
2023/02/05 07:58:48;;;;;;;26.00;12.50;;;;;6.20;100319.00;;;;4937855;29;20050;-63
2023/02/05 08:01:15;;;;;;;19.45;11.18;;;;;6.10;100319.00;;;;4937952;29;20504;-64
2023/02/05 08:03:42;;;;;;;24.00;12.43;;;;;6.10;100310.00;;;;4937432;29;20524;-61
2023/02/05 08:06:13;;;;;;;25.85;12.60;;;;;6.10;100308.00;;;;4936877;29;20054;-63
2023/02/05 08:08:40;;;;;;;31.95;12.40;;;;;6.00;100303.00;;;;4937550;29;20043;-62
2023/02/05 08:11:07;;;;;;;25.27;12.20;;;;;6.10;100303.00;;;;4937273;29;20382;-62
2023/02/05 08:13:33;;;;;;;24.30;12.43;;;;;6.20;100316.00;;;;4919979;29;20090;-63
2023/02/05 08:16:06;;;;;;;25.23;12.57;;;;;6.20;100308.00;;;;4936680;29;20493;-62
2023/02/05 08:18:33;;;;;;;26.88;13.18;;;;;6.00;100304.00;;;;4937119;29;20051;-63
2023/02/05 08:21:00;;;;;;;24.15;14.50;;;;;5.90;100310.00;;;;4937138;29;20516;-63
2023/02/05 08:23:26;;;;;;;25.58;13.30;;;;;5.80;100306.00;;;;4937018;29;20102;-63
2023/02/05 08:25:53;;;;;;;22.42;12.77;;;;;5.80;100305.00;;;;4919966;29;20039;-63
2023/02/05 08:28:20;;;;;;;27.50;15.13;;;;;5.90;100313.00;;;;4937191;29;20087;-62
2023/02/05 08:30:47;;;;;;;31.05;14.27;;;;;5.90;100306.00;;;;4920295;29;20094;-62
2023/02/05 08:33:13;;;;;;;23.35;13.77;;;;;6.10;100310.00;;;;4937222;29;20087;-62
2023/02/05 08:35:40;;;;;;;23.00;11.35;;;;;6.10;100302.00;;;;4936472;29;20055;-64
2023/02/05 08:38:07;;;;;;;28.95;13.38;;;;;6.20;100288.00;;;;4937030;29;20043;-63
2023/02/05 08:40:35;;;;;;;36.53;19.83;;;;;6.10;100277.00;;;;4920089;29;20044;-63
2023/02/05 08:43:01;;;;;;;32.00;15.50;;;;;6.10;100272.00;;;;4938087;29;20053;-62
2023/02/05 08:45:29;;;;;;;21.92;12.77;;;;;6.20;100276.00;;;;4936815;29;20102;-64
2023/02/05 08:47:56;;;;;;;24.25;11.38;;;;;6.30;100270.00;;;;4936882;29;20118;-62
2023/02/05 08:50:23;;;;;;;18.35;10.68;;;;;6.40;100269.00;;;;4937049;29;20044;-62
2023/02/05 08:52:49;;;;;;;18.48;10.90;;;;;6.60;100276.00;;;;4936629;29;20044;-63
2023/02/05 08:55:19;;;;;;;22.98;11.65;;;;;6.50;100275.00;;;;4936110;29;20052;-62
2023/02/05 08:57:46;;;;;;;28.92;12.10;;;;;6.50;100286.00;;;;4936783;29;20048;-62
2023/02/05 09:00:16;;;;;;;28.45;13.07;;;;;6.50;100273.00;;;;4936541;29;20051;-63
2023/02/05 09:02:42;;;;;;;27.27;11.73;;;;;6.60;100275.00;;;;4936936;29;20055;-63
2023/02/05 09:05:09;;;;;;;25.92;13.73;;;;;6.60;100269.00;;;;4936259;29;20059;-62
2023/02/05 09:07:38;;;;;;;25.58;13.40;;;;;6.70;100279.00;;;;4937432;29;20446;-64
2023/02/05 09:10:10;;;;;;;29.10;12.73;;;;;6.70;100282.00;;;;4936474;29;20047;-62
2023/02/05 09:12:37;;;;;;;28.27;13.68;;;;;6.70;100282.00;;;;4936170;29;20055;-62
2023/02/05 09:15:05;;;;;;;27.85;13.77;;;;;6.70;100289.00;;;;4935864;29;20561;-62
2023/02/05 09:17:31;;;;;;;24.70;13.23;;;;;6.80;100276.00;;;;4936233;29;20534;-62
2023/02/05 09:19:58;;;;;;;24.60;13.02;;;;;6.80;100281.00;;;;4936015;29;20047;-62
2023/02/05 09:22:27;;;;;;;26.38;13.18;;;;;6.90;100281.00;;;;4919008;29;20055;-63
2023/02/05 09:24:54;;;;;;;30.67;14.52;;;;;6.90;100282.00;;;;4935642;29;20044;-62
2023/02/05 09:27:20;;;;;;;25.25;12.68;;;;;7.00;100272.00;;;;4919086;29;20048;-63
2023/02/05 09:29:47;;;;;;;25.40;14.65;;;;;7.00;100279.00;;;;4935934;29;20039;-62
2023/02/05 09:32:13;;;;;;;29.98;15.32;;;;;7.00;100270.00;;;;4919222;29;20478;-62
2023/02/05 09:34:40;;;;;;;29.90;14.75;;;;;7.10;100274.00;;;;4935541;29;20091;-62
2023/02/05 09:37:06;;;;;;;24.75;13.75;;;;;7.20;100271.00;;;;4918671;29;20063;-62
2023/02/05 09:39:33;;;;;;;27.63;15.18;;;;;7.20;100272.00;;;;4935672;29;20067;-62
2023/02/05 09:42:39;;;;;;;26.50;13.98;;;;;7.30;100280.00;;;;4935747;29;20056;-63
2023/02/05 09:45:06;;;;;;;32.25;15.25;;;;;7.30;100282.00;;;;4918317;29;20048;-63
2023/02/05 09:48:01;;;;;;;34.10;17.00;;;;;7.50;100274.00;;;;4935781;29;20051;-62
2023/02/05 09:50:29;;;;;;;24.35;13.90;;;;;7.50;100263.00;;;;4918929;29;20401;-62
2023/02/05 09:53:01;;;;;;;30.30;14.20;;;;;7.50;100266.00;;;;4940129;29;20055;-63
2023/02/05 09:55:35;;;;;;;28.58;13.85;;;;;7.60;100261.00;;;;4942548;29;20040;-63
2023/02/05 09:58:06;;;;;;;33.00;14.15;;;;;7.70;100263.00;;;;4939295;29;20457;-61
2023/02/05 10:00:41;;;;;;;31.90;14.00;;;;;7.60;100255.00;;;;4936563;29;20039;-62
2023/02/05 10:03:40;;;;;;;26.92;15.07;;;;;7.60;100262.00;;;;4936895;29;20052;-62
2023/02/05 10:06:24;;;;;;;26.83;15.10;;;;;7.70;100261.00;;;;4935649;29;20043;-62
2023/02/05 10:09:11;;;;;;;26.98;15.63;;;;;7.60;100252.00;;;;4937026;29;20417;-62
2023/02/05 10:11:45;;;;;;;29.17;16.67;;;;;7.60;100255.00;;;;4935884;29;20032;-63
2023/02/05 10:14:23;;;;;;;31.45;17.75;;;;;7.60;100246.00;;;;4936105;29;20051;-62
2023/02/05 10:17:04;;;;;;;28.85;16.63;;;;;7.70;100253.00;;;;4919161;29;20055;-63
2023/02/05 10:19:44;;;;;;;31.80;17.73;;;;;7.70;100245.00;;;;4936386;29;20576;-62
2023/02/05 10:22:24;;;;;;;27.35;15.65;;;;;7.60;100239.00;;;;4935911;29;20099;-63
2023/02/05 10:25:15;;;;;;;36.20;17.25;;;;;7.60;100250.00;;;;4918086;29;20433;-64
2023/02/05 10:28:19;;;;;;;32.00;15.77;;;;;7.60;100252.00;;;;4935186;29;20095;-63
2023/02/05 10:30:56;;;;;;;38.58;19.27;;;;;7.50;100245.00;;;;4935400;29;20043;-65
2023/02/05 10:33:32;;;;;;;37.80;23.05;;;;;7.50;100236.00;;;;4935404;29;20056;-64
2023/02/05 10:36:05;;;;;;;29.55;16.65;;;;;7.50;100229.00;;;;4934469;29;20107;-63
2023/02/05 10:38:35;;;;;;;30.15;16.15;;;;;7.50;100236.00;;;;4935381;29;20141;-63
2023/02/05 10:41:18;;;;;;;30.88;18.40;;;;;7.50;100238.00;;;;4935017;29;20043;-64
2023/02/05 10:43:52;;;;;;;34.43;18.37;;;;;7.40;100236.00;;;;4935289;29;20043;-63
2023/02/05 10:46:19;;;;;;;30.13;16.45;;;;;7.40;100230.00;;;;4934356;29;20095;-65
2023/02/05 10:48:55;;;;;;;34.65;17.17;;;;;7.50;100218.00;;;;4934835;29;20050;-65
2023/02/05 10:51:47;;;;;;;29.67;16.30;;;;;7.50;100219.00;;;;4934870;29;20044;-64
2023/02/05 10:54:23;;;;;;;37.15;19.85;;;;;7.40;100212.00;;;;4932329;29;20063;-66
2023/02/05 10:56:50;;;;;;;28.23;16.08;;;;;7.40;100210.00;;;;4934589;29;20055;-64
2023/02/05 10:59:23;;;;;;;26.73;14.75;;;;;7.40;100199.00;;;;4934744;29;20107;-63
2023/02/05 11:01:54;;;;;;;30.73;16.63;;;;;7.40;100197.00;;;;4934702;29;20040;-65
2023/02/05 11:04:37;;;;;;;32.72;17.17;;;;;7.50;100190.00;;;;4917024;29;20525;-63
2023/02/05 11:07:12;;;;;;;32.08;16.75;;;;;7.60;100189.00;;;;4917551;29;20056;-64
2023/02/05 11:09:39;;;;;;;29.02;16.08;;;;;7.70;100188.00;;;;4934621;29;20048;-63
2023/02/05 11:12:19;;;;;;;23.40;13.48;;;;;7.70;100186.00;;;;4934471;29;20126;-63
2023/02/05 11:14:55;;;;;;;26.52;15.48;;;;;7.70;100185.00;;;;4917117;29;20051;-64
2023/02/05 11:17:35;;;;;;;32.90;18.27;;;;;7.70;100181.00;;;;4934754;29;20044;-64
2023/02/05 11:20:16;;;;;;;31.30;18.52;;;;;7.70;100185.00;;;;4917656;29;20043;-63
2023/02/05 11:22:45;;;;;;;33.10;18.48;;;;;7.70;100180.00;;;;4934530;29;20061;-63
2023/02/05 11:25:21;;;;;;;29.80;17.10;;;;;7.70;100176.00;;;;4933851;29;20048;-63
2023/02/05 11:27:55;;;;;;;29.45;15.73;;;;;7.80;100171.00;;;;4936144;29;20058;-63
2023/02/05 11:30:29;;;;;;;25.58;15.55;;;;;7.80;100164.00;;;;4938251;29;20054;-63
2023/02/05 11:33:21;;;;;;;34.83;18.55;;;;;7.80;100160.00;;;;4938440;29;20118;-63
2023/02/05 11:36:05;;;;;;;44.40;22.15;;;;;7.80;100154.00;;;;4920919;29;20079;-63
2023/02/05 11:39:00;;;;;;;29.70;18.02;;;;;7.80;100149.00;;;;4938064;29;20040;-63
2023/02/05 11:41:29;;;;;;;29.20;19.52;;;;;7.80;100157.00;;;;4908898;29;20059;-64
2023/02/05 11:43:58;;;;;;;37.58;22.83;;;;;7.80;100149.00;;;;4937880;29;20416;-62
2023/02/05 11:46:27;;;;;;;37.97;23.60;;;;;7.80;100142.00;;;;4937507;29;20047;-63
2023/02/05 11:48:56;;;;;;;32.45;19.17;;;;;7.90;100146.00;;;;4937835;29;20072;-63
2023/02/05 11:51:35;;;;;;;24.70;15.93;;;;;8.00;100147.00;;;;4937953;29;20035;-64
2023/02/05 11:54:15;;;;;;;27.38;17.13;;;;;8.00;100134.00;;;;4920784;29;20082;-64
2023/02/05 11:56:41;;;;;;;26.95;17.15;;;;;8.00;100130.00;;;;4938025;29;20516;-63
2023/02/05 11:59:19;;;;;;;27.77;17.42;;;;;8.00;100138.00;;;;4920729;29;20445;-63
2023/02/05 12:01:47;;;;;;;23.35;16.85;;;;;8.00;100132.00;;;;4937600;29;20376;-63
2023/02/05 12:04:18;;;;;;;26.55;16.95;;;;;8.00;100134.00;;;;4936828;29;20054;-60
2023/02/05 12:06:51;;;;;;;27.77;16.77;;;;;8.00;100132.00;;;;4920623;29;20054;-63
2023/02/05 12:09:29;;;;;;;25.10;16.35;;;;;8.10;100132.00;;;;4937568;29;20047;-64
2023/02/05 12:12:15;;;;;;;26.13;15.43;;;;;8.00;100135.00;;;;4920326;29;20403;-62
2023/02/05 12:14:54;;;;;;;25.17;15.02;;;;;8.00;100125.00;;;;4936906;29;20477;-61
2023/02/05 12:17:32;;;;;;;27.90;15.82;;;;;8.20;100121.00;;;;4920672;29;20131;-64
2023/02/05 12:20:02;;;;;;;24.10;15.00;;;;;8.20;100132.00;;;;4937699;29;20057;-62
2023/02/05 12:23:06;;;;;;;29.17;16.08;;;;;8.10;100135.00;;;;4937276;29;20052;-61
2023/02/05 12:25:48;;;;;;;20.17;12.55;;;;;8.10;100127.00;;;;4919497;29;20497;-60